Time;durP1;ratioP1;P1;durP2;ratioP2;P2;SDS_P1;SDS_P2;PMS_P1;PMS_P2;Temp;Humidity;BMP_temperature;BMP_pressure;BME280_temperature;BME280_humidity;BME280_pressure;Samples;Min_cycle;Max_cycle;Signal;HPM_P1;HPM_P2
2022/03/30 00:00:44;;;;;;;24.52;12.73;;;6.70;99.90;;;;;;4996198;28;20038;-62
2022/03/30 00:03:09;;;;;;;26.10;13.65;;;6.70;99.90;;;;;;5013561;28;20042;-63
2022/03/30 00:05:35;;;;;;;29.90;14.30;;;6.80;99.90;;;;;;5013291;28;20034;-62
2022/03/30 00:08:01;;;;;;;24.98;13.13;;;6.80;99.90;;;;;;5013961;28;20100;-63
2022/03/30 00:10:26;;;;;;;26.70;13.07;;;6.70;99.90;;;;;;5017614;28;20388;-63
2022/03/30 00:12:52;;;;;;;25.67;12.82;;;6.70;99.90;;;;;;5017374;28;20085;-63
2022/03/30 00:15:18;;;;;;;27.52;13.60;;;6.70;99.90;;;;;;5016827;28;20072;-64
2022/03/30 00:17:44;;;;;;;24.10;12.18;;;6.70;99.90;;;;;;5017365;28;20041;-62
2022/03/30 00:20:10;;;;;;;24.77;12.70;;;6.60;99.90;;;;;;5017297;28;20458;-63
2022/03/30 00:22:38;;;;;;;24.23;12.45;;;6.60;99.90;;;;;;5016876;28;20038;-65
2022/03/30 00:25:05;;;;;;;28.30;12.73;;;6.60;99.90;;;;;;5017296;28;20042;-63
2022/03/30 00:27:31;;;;;;;28.50;14.02;;;6.50;99.90;;;;;;5017738;28;20095;-63
2022/03/30 00:29:56;;;;;;;21.23;12.98;;;6.50;99.90;;;;;;5016845;28;20037;-63
2022/03/30 00:32:22;;;;;;;26.85;13.00;;;6.50;99.90;;;;;;5016700;28;20037;-63
2022/03/30 00:34:48;;;;;;;24.98;12.55;;;6.60;99.90;;;;;;5017170;28;20042;-64
2022/03/30 00:37:14;;;;;;;28.73;13.00;;;6.60;99.90;;;;;;5016843;28;20482;-63
2022/03/30 00:39:39;;;;;;;27.27;12.70;;;6.60;99.90;;;;;;5016776;28;20518;-63
2022/03/30 00:42:21;;;;;;;26.30;13.40;;;6.60;99.90;;;;;;5015933;28;20052;-64
2022/03/30 00:44:47;;;;;;;29.25;13.68;;;6.60;99.90;;;;;;5016684;28;20410;-63
2022/03/30 00:47:26;;;;;;;24.00;12.38;;;6.60;99.90;;;;;;5016429;28;20113;-63
2022/03/30 00:49:53;;;;;;;21.83;12.90;;;6.70;99.90;;;;;;5016704;28;20034;-63
2022/03/30 00:52:20;;;;;;;29.38;12.77;;;6.70;99.90;;;;;;5016467;28;20046;-64
2022/03/30 00:54:49;;;;;;;24.48;13.40;;;6.70;99.90;;;;;;5016853;28;20052;-63
2022/03/30 00:57:18;;;;;;;25.27;13.38;;;6.60;99.90;;;;;;5016393;28;20085;-63
2022/03/30 00:59:44;;;;;;;25.77;13.07;;;6.60;99.90;;;;;;5016646;28;20050;-63
2022/03/30 01:02:09;;;;;;;23.90;12.88;;;6.60;99.90;;;;;;5016266;28;20037;-63
2022/03/30 01:04:35;;;;;;;30.88;13.38;;;6.60;99.90;;;;;;5016702;28;20443;-63
2022/03/30 01:07:01;;;;;;;21.60;12.93;;;6.60;99.90;;;;;;5015430;28;20034;-63
2022/03/30 01:09:27;;;;;;;27.83;13.65;;;6.60;99.90;;;;;;5016727;28;20038;-63
2022/03/30 01:11:54;;;;;;;25.08;13.45;;;6.50;99.90;;;;;;5015960;28;20112;-63
2022/03/30 01:14:21;;;;;;;24.17;12.98;;;6.60;99.90;;;;;;5016369;28;20121;-63
2022/03/30 01:16:47;;;;;;;27.75;13.75;;;6.50;99.90;;;;;;5015930;28;20038;-63
2022/03/30 01:19:14;;;;;;;29.95;13.45;;;6.50;99.90;;;;;;5015968;28;20057;-63
2022/03/30 01:21:41;;;;;;;26.58;13.02;;;6.50;99.90;;;;;;5015894;28;20058;-63
2022/03/30 01:24:11;;;;;;;29.05;13.07;;;6.60;99.90;;;;;;5016199;28;20045;-63
2022/03/30 01:26:37;;;;;;;25.05;13.48;;;6.60;99.90;;;;;;5015963;28;20111;-63
2022/03/30 01:32:25;;;;;;;29.38;13.35;;;6.60;99.90;;;;;;5016348;28;20125;-63
2022/03/30 01:34:35;;;;;;;26.27;13.73;;;6.50;99.90;;;;;;5016184;28;20060;-62
2022/03/30 01:37:06;;;;;;;30.02;14.75;;;6.50;99.90;;;;;;4998899;28;20494;-63
2022/03/30 01:39:32;;;;;;;31.40;14.85;;;6.50;99.90;;;;;;5016052;28;20037;-63
2022/03/30 01:41:58;;;;;;;25.98;14.73;;;6.50;99.90;;;;;;4998277;28;20053;-62
2022/03/30 01:44:24;;;;;;;26.33;14.35;;;6.40;99.90;;;;;;5016179;28;20045;-63
2022/03/30 01:46:53;;;;;;;28.40;14.13;;;6.40;99.90;;;;;;5015245;28;20046;-62
2022/03/30 01:49:21;;;;;;;30.45;14.43;;;6.40;99.90;;;;;;5015593;28;20048;-62
2022/03/30 01:51:55;;;;;;;25.90;13.88;;;6.40;99.90;;;;;;5015236;28;20514;-63
2022/03/30 01:54:23;;;;;;;23.50;14.00;;;6.30;99.90;;;;;;5015705;28;20135;-62
2022/03/30 01:56:50;;;;;;;26.13;14.38;;;6.30;99.90;;;;;;5015401;28;20092;-64
2022/03/30 01:59:17;;;;;;;27.35;14.00;;;6.30;99.90;;;;;;5015516;28;20353;-62
2022/03/30 02:01:42;;;;;;;28.75;14.38;;;6.40;99.90;;;;;;5014767;28;20077;-63
2022/03/30 02:04:08;;;;;;;24.33;13.93;;;6.40;99.90;;;;;;5015759;28;20072;-64
2022/03/30 02:06:36;;;;;;;30.98;15.10;;;6.30;99.90;;;;;;5015199;28;20044;-62
2022/03/30 02:09:02;;;;;;;26.08;14.38;;;6.30;99.90;;;;;;5015637;28;20138;-63
2022/03/30 02:11:28;;;;;;;34.40;14.38;;;6.20;99.90;;;;;;5014887;28;20477;-62
2022/03/30 02:13:55;;;;;;;30.10;15.15;;;6.20;99.90;;;;;;5014838;28;20129;-63
2022/03/30 02:16:21;;;;;;;27.85;15.27;;;6.20;99.90;;;;;;5014581;28;20355;-63
2022/03/30 02:18:46;;;;;;;30.17;15.38;;;6.20;99.90;;;;;;5014108;28;20453;-62
2022/03/30 02:21:13;;;;;;;29.30;14.85;;;6.20;99.90;;;;;;5015112;28;20038;-64
2022/03/30 02:23:39;;;;;;;25.98;14.68;;;6.20;99.90;;;;;;5014908;28;20038;-62
2022/03/30 02:26:05;;;;;;;25.60;15.38;;;6.10;99.90;;;;;;5015003;28;20045;-63
2022/03/30 02:28:32;;;;;;;26.55;14.85;;;6.10;99.90;;;;;;5014847;28;20497;-62
2022/03/30 02:30:57;;;;;;;28.15;15.05;;;6.10;99.90;;;;;;5014259;28;20045;-62
2022/03/30 02:33:23;;;;;;;27.52;15.77;;;6.20;99.90;;;;;;5014277;28;20048;-63
2022/03/30 02:35:50;;;;;;;27.27;15.73;;;6.10;99.90;;;;;;5014339;28;20053;-62
2022/03/30 02:38:16;;;;;;;29.40;16.25;;;6.10;99.90;;;;;;5015051;28;20041;-62
2022/03/30 02:40:41;;;;;;;28.83;15.75;;;6.00;99.90;;;;;;5014838;28;20042;-62
2022/03/30 02:43:07;;;;;;;34.78;16.65;;;5.90;99.90;;;;;;5014545;28;20089;-63
2022/03/30 02:45:33;;;;;;;29.02;15.10;;;5.90;99.90;;;;;;5014567;28;20107;-63
2022/03/30 02:50:44;;;;;;;29.77;16.75;;;5.80;99.90;;;;;;5014803;28;20050;-63
2022/03/30 02:53:10;;;;;;;28.85;16.55;;;5.80;99.90;;;;;;5014288;28;20360;-62
2022/03/30 02:55:36;;;;;;;30.95;16.20;;;5.80;99.90;;;;;;5014181;28;20434;-62
2022/03/30 02:58:01;;;;;;;31.23;16.63;;;5.80;99.90;;;;;;5015303;28;20081;-62
2022/03/30 03:00:28;;;;;;;27.25;16.48;;;5.80;99.90;;;;;;5014795;28;20048;-63
2022/03/30 03:02:53;;;;;;;32.03;17.55;;;5.90;99.90;;;;;;5014137;28;20050;-63
2022/03/30 03:05:19;;;;;;;28.90;16.20;;;5.90;99.90;;;;;;5014316;28;20052;-62
2022/03/30 03:07:45;;;;;;;28.20;16.63;;;6.00;99.90;;;;;;5014612;28;20092;-62
2022/03/30 03:10:11;;;;;;;29.85;15.63;;;6.00;99.90;;;;;;5014336;28;20049;-62
2022/03/30 03:12:36;;;;;;;29.98;15.55;;;6.00;99.90;;;;;;5013916;28;20042;-63
2022/03/30 03:15:02;;;;;;;27.58;15.50;;;6.10;99.90;;;;;;5013758;28;20058;-62
2022/03/30 03:17:28;;;;;;;30.05;16.75;;;6.20;99.90;;;;;;5014396;28;20108;-62
2022/03/30 03:19:53;;;;;;;28.08;15.32;;;6.20;99.90;;;;;;5014025;28;20044;-63
2022/03/30 03:22:19;;;;;;;26.75;14.95;;;6.20;99.90;;;;;;5013756;28;20041;-62
2022/03/30 03:24:45;;;;;;;31.00;15.23;;;6.30;99.90;;;;;;5014272;28;20053;-62
2022/03/30 03:27:11;;;;;;;26.02;15.32;;;6.30;99.90;;;;;;5013830;28;20067;-63
2022/03/30 03:29:37;;;;;;;30.25;15.73;;;6.40;99.90;;;;;;5014266;28;20049;-63
2022/03/30 03:32:03;;;;;;;28.20;15.35;;;6.50;99.90;;;;;;5013952;28;20190;-62
2022/03/30 03:34:29;;;;;;;34.17;16.50;;;6.50;99.90;;;;;;5014431;28;20124;-64
2022/03/30 03:36:54;;;;;;;33.15;16.80;;;6.50;99.90;;;;;;4996375;28;20128;-62
2022/03/30 03:39:20;;;;;;;31.70;16.65;;;6.50;99.90;;;;;;5014042;28;20033;-62
2022/03/30 03:41:45;;;;;;;33.28;17.20;;;6.40;99.90;;;;;;5013900;28;20042;-63
2022/03/30 03:44:12;;;;;;;32.85;16.55;;;6.50;99.90;;;;;;5000465;28;20085;-63
2022/03/30 03:46:38;;;;;;;36.10;17.67;;;6.40;99.90;;;;;;5017527;28;20510;-63
2022/03/30 03:49:03;;;;;;;31.23;16.83;;;6.40;99.90;;;;;;5018374;28;20034;-63
2022/03/30 03:51:29;;;;;;;33.08;17.60;;;6.30;99.90;;;;;;5018183;28;20049;-63
2022/03/30 03:53:54;;;;;;;37.28;17.50;;;6.40;99.90;;;;;;5017940;28;20053;-62
2022/03/30 03:56:21;;;;;;;34.03;18.45;;;6.30;99.90;;;;;;5017978;28;20041;-63
2022/03/30 03:58:49;;;;;;;32.05;18.02;;;6.30;99.90;;;;;;5017935;28;20038;-62
2022/03/30 04:01:15;;;;;;;32.58;18.52;;;6.20;99.90;;;;;;5017710;28;20176;-62
2022/03/30 04:03:42;;;;;;;33.08;17.77;;;6.20;99.90;;;;;;5017411;28;20033;-64
2022/03/30 04:06:08;;;;;;;32.13;16.13;;;6.30;99.90;;;;;;5017208;28;20042;-63
2022/03/30 04:08:35;;;;;;;30.83;17.05;;;6.20;99.90;;;;;;5000452;28;20041;-63
2022/03/30 04:11:00;;;;;;;30.45;16.15;;;6.20;99.90;;;;;;5017964;28;20125;-62
2022/03/30 04:13:26;;;;;;;30.85;16.42;;;6.20;99.90;;;;;;4999365;28;20140;-62
2022/03/30 04:15:52;;;;;;;32.33;17.80;;;6.30;99.90;;;;;;5017342;28;20050;-62
2022/03/30 04:18:17;;;;;;;27.70;16.48;;;6.30;99.90;;;;;;5000226;28;20522;-63
2022/03/30 04:20:44;;;;;;;32.40;17.90;;;6.30;99.90;;;;;;5000230;28;20455;-63
2022/03/30 04:23:10;;;;;;;33.65;17.13;;;6.20;99.90;;;;;;5017065;28;20088;-62
2022/03/30 04:25:36;;;;;;;31.95;16.48;;;6.20;99.90;;;;;;5017483;28;20145;-63
2022/03/30 04:28:01;;;;;;;30.77;16.23;;;6.20;99.90;;;;;;5017764;28;20487;-62
2022/03/30 04:30:27;;;;;;;29.30;16.23;;;6.20;99.90;;;;;;5017251;28;20041;-63
2022/03/30 04:32:53;;;;;;;35.50;16.48;;;6.20;99.90;;;;;;5017006;28;20041;-62
2022/03/30 04:35:24;;;;;;;29.90;15.63;;;6.30;99.90;;;;;;5016932;28;20142;-62
2022/03/30 04:37:54;;;;;;;31.98;16.38;;;6.20;99.90;;;;;;5017406;28;20115;-63
2022/03/30 04:40:22;;;;;;;31.92;16.90;;;6.20;99.90;;;;;;5016939;28;20494;-63
2022/03/30 04:42:49;;;;;;;32.47;15.35;;;6.20;99.90;;;;;;4979806;28;20101;-63
2022/03/30 04:45:15;;;;;;;26.45;14.55;;;6.20;99.90;;;;;;4997433;28;20034;-63
2022/03/30 04:47:40;;;;;;;29.55;14.88;;;6.20;99.90;;;;;;4997043;28;20045;-62
2022/03/30 04:50:06;;;;;;;27.45;14.85;;;6.30;99.90;;;;;;4980293;28;20046;-64
2022/03/30 04:52:32;;;;;;;27.70;14.55;;;6.40;99.90;;;;;;5005370;28;20050;-63
2022/03/30 04:54:58;;;;;;;26.20;14.55;;;6.40;99.90;;;;;;5015655;28;20506;-62
2022/03/30 04:57:24;;;;;;;31.42;15.18;;;6.40;99.90;;;;;;4999664;28;20049;-63
2022/03/30 04:59:49;;;;;;;23.60;14.00;;;6.30;99.90;;;;;;5016726;28;20443;-62
2022/03/30 05:02:15;;;;;;;27.50;14.82;;;6.40;99.90;;;;;;5007859;28;20057;-63
2022/03/30 05:04:41;;;;;;;26.77;14.98;;;6.30;99.90;;;;;;4996044;28;20046;-63
2022/03/30 05:07:06;;;;;;;27.77;15.85;;;6.30;99.90;;;;;;4980507;28;20035;-64
2022/03/30 05:09:32;;;;;;;29.25;14.88;;;6.20;99.90;;;;;;4996256;28;20045;-63
2022/03/30 05:11:58;;;;;;;35.80;16.23;;;6.30;99.90;;;;;;5001211;28;20052;-63
2022/03/30 05:14:23;;;;;;;32.58;15.27;;;6.30;99.90;;;;;;4995693;28;20058;-63
2022/03/30 05:16:49;;;;;;;27.38;14.95;;;6.30;99.90;;;;;;4995909;28;20100;-64
2022/03/30 05:19:15;;;;;;;24.45;14.63;;;6.30;99.90;;;;;;4996277;28;20049;-62
2022/03/30 05:21:40;;;;;;;28.17;14.48;;;6.30;99.90;;;;;;4999484;28;20424;-63
2022/03/30 05:24:06;;;;;;;31.63;15.95;;;6.40;99.90;;;;;;5008702;28;20431;-65
2022/03/30 05:26:32;;;;;;;27.25;16.50;;;6.40;99.90;;;;;;5015405;28;20052;-63
2022/03/30 05:28:58;;;;;;;35.47;16.67;;;6.30;99.90;;;;;;4997262;28;20041;-63
2022/03/30 05:31:23;;;;;;;30.50;15.57;;;6.30;99.90;;;;;;5015429;28;20060;-63
2022/03/30 05:33:49;;;;;;;27.55;15.00;;;6.20;99.90;;;;;;5015535;28;20479;-62
2022/03/30 05:36:15;;;;;;;27.98;14.48;;;6.20;99.90;;;;;;5015464;28;20443;-63
2022/03/30 05:38:40;;;;;;;28.40;13.50;;;6.10;99.90;;;;;;5016118;28;20352;-63
2022/03/30 05:41:06;;;;;;;25.90;13.35;;;6.10;99.90;;;;;;4998455;28;20046;-64
2022/03/30 05:43:31;;;;;;;24.38;13.57;;;6.10;99.90;;;;;;5015138;28;20125;-66
2022/03/30 05:45:57;;;;;;;24.35;13.00;;;6.10;99.90;;;;;;5015755;28;20034;-63
2022/03/30 05:48:24;;;;;;;25.50;12.75;;;6.10;99.90;;;;;;4966355;28;20481;-63
2022/03/30 05:50:52;;;;;;;21.05;10.95;;;6.10;99.90;;;;;;4997689;28;20045;-63
2022/03/30 05:53:17;;;;;;;20.45;11.32;;;6.20;99.90;;;;;;5014896;28;20030;-64
2022/03/30 05:55:47;;;;;;;18.80;10.50;;;6.40;99.90;;;;;;5015122;28;20088;-63
2022/03/30 05:58:14;;;;;;;19.30;10.32;;;6.40;99.90;;;;;;4997835;28;20041;-63
2022/03/30 06:00:41;;;;;;;21.88;8.60;;;6.40;99.90;;;;;;5015776;28;20112;-63
2022/03/30 06:03:07;;;;;;;15.63;8.10;;;6.50;99.90;;;;;;5015045;28;20050;-65
2022/03/30 06:05:33;;;;;;;13.45;7.40;;;6.50;99.90;;;;;;5015248;28;20038;-63
2022/03/30 06:07:59;;;;;;;10.93;6.30;;;6.60;99.90;;;;;;5015907;28;20447;-63
2022/03/30 06:10:26;;;;;;;13.82;6.20;;;6.60;99.90;;;;;;5014976;28;20482;-63
2022/03/30 06:12:53;;;;;;;10.75;5.60;;;6.60;99.90;;;;;;4996240;28;20458;-63
2022/03/30 06:15:19;;;;;;;13.40;5.13;;;6.70;99.90;;;;;;4995011;28;20406;-64
2022/03/30 06:17:46;;;;;;;9.57;4.75;;;6.60;99.90;;;;;;4994319;28;20060;-63
2022/03/30 06:20:13;;;;;;;10.35;4.25;;;6.70;99.90;;;;;;4994227;28;20137;-64
2022/03/30 06:22:42;;;;;;;6.43;3.88;;;6.60;99.90;;;;;;4995263;28;20034;-63
2022/03/30 06:25:12;;;;;;;7.18;3.05;;;6.70;99.90;;;;;;4995358;28;20043;-64
2022/03/30 06:27:38;;;;;;;4.85;2.30;;;6.60;99.90;;;;;;4994361;28;20034;-64
2022/03/30 06:30:06;;;;;;;5.88;2.22;;;6.70;99.90;;;;;;4994276;28;20061;-62
2022/03/30 06:32:32;;;;;;;4.38;2.08;;;6.70;99.90;;;;;;5001852;28;20045;-63
2022/03/30 06:34:57;;;;;;;5.15;1.95;;;6.70;99.90;;;;;;4986777;28;20119;-63
2022/03/30 06:37:23;;;;;;;2.10;1.50;;;6.80;99.90;;;;;;5014159;28;20077;-62
2022/03/30 06:39:49;;;;;;;5.32;1.90;;;6.80;99.90;;;;;;5014737;28;20502;-63
2022/03/30 06:42:16;;;;;;;4.05;2.00;;;6.70;99.90;;;;;;5012509;28;20060;-63
2022/03/30 06:44:43;;;;;;;5.93;1.83;;;6.80;99.90;;;;;;5013993;28;20510;-63
2022/03/30 06:47:08;;;;;;;3.78;1.70;;;6.70;99.90;;;;;;5014493;28;20030;-64
2022/03/30 06:49:36;;;;;;;4.82;1.77;;;7.10;99.90;;;;;;5014583;28;20064;-63
2022/03/30 06:52:03;;;;;;;3.10;1.65;;;7.40;99.90;;;;;;5014230;28;20042;-64
2022/03/30 06:54:29;;;;;;;4.72;1.60;;;7.60;99.90;;;;;;5014386;28;20056;-64
2022/03/30 06:56:54;;;;;;;2.88;1.73;;;7.70;99.90;;;;;;5014627;28;20038;-63
2022/03/30 06:59:20;;;;;;;6.38;1.50;;;8.20;99.90;;;;;;5014357;28;20038;-63
2022/03/30 07:01:46;;;;;;;6.25;2.00;;;8.40;99.90;;;;;;4996645;28;20042;-63
2022/03/30 07:04:11;;;;;;;2.97;1.23;;;8.20;99.90;;;;;;5014638;28;20033;-63
2022/03/30 07:10:14;;;;;;;5.00;1.40;;;8.30;99.90;;;;;;4996972;28;20451;-63
2022/03/30 07:12:07;;;;;;;1.98;1.00;;;8.10;99.90;;;;;;5014079;28;20049;-64
2022/03/30 07:14:32;;;;;;;4.32;1.92;;;8.40;99.90;;;;;;5010768;28;20150;-63
2022/03/30 07:16:58;;;;;;;1.45;0.93;;;8.20;99.90;;;;;;5013323;28;20042;-63
2022/03/30 07:19:24;;;;;;;1.85;1.10;;;8.20;99.90;;;;;;5014088;28;20125;-63
2022/03/30 07:21:49;;;;;;;3.03;1.10;;;8.20;99.90;;;;;;5013326;28;20052;-62
2022/03/30 07:24:15;;;;;;;3.78;1.10;;;8.20;99.90;;;;;;5007648;28;20050;-64
2022/03/30 07:26:40;;;;;;;1.95;1.20;;;8.30;99.90;;;;;;4994384;28;20034;-63
2022/03/30 07:29:06;;;;;;;2.55;1.52;;;8.30;99.90;;;;;;4994525;28;20038;-65
2022/03/30 07:31:31;;;;;;;2.92;1.23;;;8.20;99.90;;;;;;4994660;28;20046;-62
2022/03/30 07:33:57;;;;;;;2.83;1.30;;;8.20;99.90;;;;;;5012626;28;20049;-62
2022/03/30 07:36:23;;;;;;;3.33;1.40;;;8.30;99.90;;;;;;5013902;28;20085;-62
2022/03/30 07:38:48;;;;;;;1.30;1.15;;;8.20;99.90;;;;;;5013757;28;20157;-62
2022/03/30 07:41:14;;;;;;;3.08;1.33;;;8.20;99.90;;;;;;5014054;28;20042;-62
2022/03/30 07:43:39;;;;;;;4.55;1.52;;;8.20;99.90;;;;;;5013102;28;20122;-64
2022/03/30 07:46:08;;;;;;;2.70;1.40;;;8.20;99.90;;;;;;5013479;28;20446;-64
2022/03/30 07:48:33;;;;;;;4.18;1.67;;;8.10;99.90;;;;;;5013837;28;20109;-63
2022/03/30 07:50:59;;;;;;;3.63;2.00;;;8.20;99.90;;;;;;5013728;28;20121;-62
2022/03/30 07:53:25;;;;;;;2.95;1.40;;;8.20;99.90;;;;;;5013550;28;20037;-63
2022/03/30 07:55:50;;;;;;;2.40;1.50;;;8.30;99.90;;;;;;4996279;28;20403;-62
2022/03/30 07:58:16;;;;;;;4.03;1.58;;;8.10;99.90;;;;;;4980249;28;20129;-62
2022/03/30 08:00:42;;;;;;;2.17;1.42;;;8.10;99.90;;;;;;5013517;28;20056;-63
2022/03/30 08:03:08;;;;;;;3.33;1.45;;;8.20;99.90;;;;;;5013248;28;20034;-63
2022/03/30 08:05:34;;;;;;;4.55;1.52;;;8.30;99.90;;;;;;4996063;28;20084;-63
2022/03/30 08:08:01;;;;;;;3.00;1.65;;;8.40;99.90;;;;;;5013937;28;20443;-62
2022/03/30 08:10:30;;;;;;;2.70;1.83;;;8.40;99.90;;;;;;5013723;28;20049;-64
2022/03/30 08:12:56;;;;;;;4.88;1.90;;;8.40;99.90;;;;;;5013713;28;20046;-63
2022/03/30 08:15:22;;;;;;;3.83;2.17;;;8.30;99.90;;;;;;5012976;28;20100;-62
2022/03/30 08:17:50;;;;;;;3.20;2.17;;;8.30;99.90;;;;;;5013400;28;20042;-63
2022/03/30 08:22:25;;;;;;;3.10;2.15;;;8.30;99.90;;;;;;5013554;28;20077;-62
2022/03/30 08:23:01;;;;;;;3.20;2.28;;;8.30;99.90;;;;;;5013300;28;20381;-62
2022/03/30 08:25:27;;;;;;;2.65;1.67;;;8.30;99.90;;;;;;5013387;28;20034;-64
2022/03/30 08:27:53;;;;;;;3.35;1.77;;;8.40;99.90;;;;;;5013944;28;20077;-62
2022/03/30 08:30:18;;;;;;;4.10;2.05;;;8.50;99.90;;;;;;5015420;28;20073;-62
2022/03/30 08:32:44;;;;;;;3.15;1.50;;;8.40;99.90;;;;;;5016565;28;20100;-63
2022/03/30 08:35:12;;;;;;;3.65;1.50;;;8.40;99.90;;;;;;5016929;28;20071;-62
2022/03/30 08:37:38;;;;;;;3.50;1.50;;;8.40;99.90;;;;;;4999635;28;20129;-62
2022/03/30 08:40:04;;;;;;;2.38;1.50;;;8.50;99.90;;;;;;5017057;28;20065;-63
2022/03/30 08:42:30;;;;;;;4.15;1.85;;;8.50;99.90;;;;;;5016602;28;20096;-62
2022/03/30 08:44:56;;;;;;;1.73;1.50;;;8.60;99.90;;;;;;5016782;28;20038;-63
2022/03/30 08:47:21;;;;;;;4.60;1.65;;;8.50;99.90;;;;;;5016780;28;20041;-62
2022/03/30 08:49:50;;;;;;;4.70;1.85;;;8.40;99.90;;;;;;5016389;28;20038;-63
2022/03/30 08:52:16;;;;;;;3.95;1.52;;;8.50;99.90;;;;;;5016493;28;20041;-63
2022/03/30 08:54:44;;;;;;;6.07;1.77;;;8.70;99.90;;;;;;5016401;28;20056;-62
2022/03/30 08:57:10;;;;;;;2.42;1.40;;;8.80;99.90;;;;;;5016458;28;20037;-62
2022/03/30 08:59:35;;;;;;;5.53;1.30;;;9.00;99.90;;;;;;5016599;28;20056;-64
2022/03/30 09:02:01;;;;;;;5.15;1.30;;;9.20;99.90;;;;;;5016332;28;20042;-63
2022/03/30 09:04:27;;;;;;;4.13;1.23;;;9.00;99.90;;;;;;5015928;28;20042;-64
2022/03/30 09:06:55;;;;;;;4.32;1.10;;;9.10;99.90;;;;;;5016034;28;20092;-62
2022/03/30 09:09:47;;;;;;;2.45;1.00;;;9.30;99.90;;;;;;5016466;28;20038;-62
2022/03/30 09:12:12;;;;;;;1.85;1.10;;;9.20;99.90;;;;;;5012889;28;20391;-62
2022/03/30 09:14:39;;;;;;;2.60;1.25;;;9.20;99.90;;;;;;5015789;28;20483;-62
2022/03/30 09:17:07;;;;;;;4.60;1.63;;;9.10;99.90;;;;;;5016313;28;20052;-63
2022/03/30 09:19:38;;;;;;;3.80;1.27;;;9.20;99.90;;;;;;5016212;28;20120;-63
2022/03/30 09:22:06;;;;;;;3.92;1.75;;;9.30;99.90;;;;;;5015937;28;20205;-62
2022/03/30 09:24:35;;;;;;;2.22;1.17;;;9.40;99.90;;;;;;5015972;28;20459;-63
2022/03/30 09:27:02;;;;;;;4.35;1.10;;;9.50;99.90;;;;;;4998964;28;20045;-63
2022/03/30 09:29:31;;;;;;;5.10;1.08;;;9.60;99.90;;;;;;4999023;28;20038;-63
2022/03/30 09:32:01;;;;;;;3.33;1.30;;;9.70;99.90;;;;;;5015491;28;20479;-64
2022/03/30 09:34:33;;;;;;;2.90;1.13;;;9.80;99.90;;;;;;4998506;28;20042;-64
2022/03/30 09:37:00;;;;;;;3.63;1.40;;;9.90;99.90;;;;;;4998831;28;20100;-63
2022/03/30 09:39:36;;;;;;;3.55;1.40;;;9.90;99.90;;;;;;5015816;28;20041;-63
2022/03/30 09:42:04;;;;;;;2.53;1.27;;;9.70;99.90;;;;;;4994496;28;20108;-63
2022/03/30 09:44:43;;;;;;;4.15;1.33;;;9.90;99.90;;;;;;5015889;28;20041;-63
2022/03/30 09:47:08;;;;;;;2.70;1.10;;;10.10;99.90;;;;;;5015721;28;20461;-63
2022/03/30 09:49:41;;;;;;;5.18;1.23;;;10.30;99.90;;;;;;5015956;28;20122;-63
2022/03/30 09:52:19;;;;;;;4.78;1.23;;;10.30;99.90;;;;;;5015558;28;20042;-66
2022/03/30 09:54:50;;;;;;;3.75;1.02;;;10.20;99.90;;;;;;5015329;28;20048;-63
2022/03/30 09:57:17;;;;;;;5.30;1.33;;;10.30;99.90;;;;;;5015604;28;20100;-63
2022/03/30 10:00:07;;;;;;;4.43;1.40;;;10.30;99.90;;;;;;5015620;28;20046;-63
2022/03/30 10:02:36;;;;;;;4.18;1.10;;;10.30;99.90;;;;;;4997874;28;20077;-63
2022/03/30 10:05:04;;;;;;;5.82;1.30;;;10.50;99.90;;;;;;5015214;28;20064;-62
2022/03/30 10:07:29;;;;;;;2.33;0.90;;;10.50;99.90;;;;;;5015225;28;20516;-63
2022/03/30 10:09:57;;;;;;;6.10;1.27;;;10.30;99.90;;;;;;4997803;28;20046;-63
2022/03/30 10:12:24;;;;;;;2.80;1.10;;;10.40;99.90;;;;;;5015077;28;20132;-65
2022/03/30 10:14:50;;;;;;;3.25;1.02;;;10.60;99.90;;;;;;5014556;28;20065;-64
2022/03/30 10:17:18;;;;;;;3.42;1.00;;;10.50;99.90;;;;;;5015266;28;20041;-63
2022/03/30 10:19:46;;;;;;;4.78;1.33;;;10.40;99.90;;;;;;5014749;28;20459;-63
2022/03/30 10:22:45;;;;;;;2.70;1.10;;;10.30;99.90;;;;;;5014417;28;20196;-63
2022/03/30 10:25:43;;;;;;;3.25;1.30;;;10.40;99.90;;;;;;4997831;28;20352;-64
2022/03/30 10:28:35;;;;;;;3.55;1.20;;;10.30;99.90;;;;;;5014934;28;20034;-64
2022/03/30 10:31:01;;;;;;;4.28;1.23;;;10.20;99.90;;;;;;5015270;28;20061;-64
2022/03/30 10:33:36;;;;;;;1.60;1.10;;;10.00;99.90;;;;;;5014702;28;20050;-63
2022/03/30 10:36:32;;;;;;;2.78;1.08;;;10.00;99.90;;;;;;4997449;28;20148;-64
2022/03/30 10:39:14;;;;;;;5.00;1.63;;;10.00;99.90;;;;;;5015116;28;20064;-63
2022/03/30 10:42:21;;;;;;;6.38;1.58;;;10.20;99.90;;;;;;5014735;28;20056;-64
2022/03/30 10:44:58;;;;;;;5.55;1.52;;;10.30;99.90;;;;;;4958669;28;20058;-64
2022/03/30 10:47:34;;;;;;;4.07;1.40;;;10.40;99.90;;;;;;4995090;28;20407;-62
2022/03/30 10:50:02;;;;;;;6.13;1.65;;;10.50;99.90;;;;;;4984114;28;20092;-64
2022/03/30 10:52:43;;;;;;;4.90;1.50;;;10.60;99.90;;;;;;5013848;28;20096;-65
2022/03/30 10:55:14;;;;;;;3.15;1.65;;;10.60;99.90;;;;;;5013996;28;20498;-65
2022/03/30 10:57:44;;;;;;;6.22;1.70;;;10.80;99.90;;;;;;5014538;28;20431;-66
2022/03/30 11:00:39;;;;;;;4.13;1.70;;;10.80;99.90;;;;;;5014615;28;20041;-62
2022/03/30 11:03:13;;;;;;;4.93;1.60;;;10.90;99.90;;;;;;4996655;28;20060;-64
2022/03/30 11:05:44;;;;;;;5.10;1.70;;;10.70;99.90;;;;;;5014031;28;20042;-62
2022/03/30 11:08:55;;;;;;;2.90;1.75;;;10.70;99.90;;;;;;5014469;28;20416;-62
2022/03/30 11:11:34;;;;;;;4.85;1.20;;;10.90;99.90;;;;;;4954228;29;20047;-64
2022/03/30 11:14:36;;;;;;;3.80;1.30;;;10.90;99.70;;;;;;4969638;28;20480;-63
2022/03/30 11:17:06;;;;;;;3.47;1.98;;;10.70;99.90;;;;;;4957528;28;20042;-65
2022/03/30 11:19:49;;;;;;;4.13;1.75;;;10.90;99.90;;;;;;4996676;28;20132;-63
2022/03/30 11:22:36;;;;;;;5.15;1.98;;;11.00;99.90;;;;;;5013890;28;20085;-64
2022/03/30 11:25:19;;;;;;;4.60;2.70;;;10.90;99.90;;;;;;5013904;28;20439;-64
2022/03/30 11:28:07;;;;;;;4.97;2.55;;;10.50;99.90;;;;;;5013892;28;20042;-64
2022/03/30 11:30:38;;;;;;;3.70;2.40;;;10.70;99.90;;;;;;5013944;28;20504;-64
2022/03/30 11:33:13;;;;;;;4.13;2.35;;;11.00;99.90;;;;;;5013884;28;20045;-64
2022/03/30 11:35:42;;;;;;;7.53;2.53;;;10.90;99.90;;;;;;4996326;28;20459;-64
2022/03/30 11:38:23;;;;;;;6.43;2.85;;;10.90;99.90;;;;;;5013852;28;20352;-66
2022/03/30 11:40:52;;;;;;;5.65;2.40;;;10.80;99.90;;;;;;5013977;28;20473;-65
2022/03/30 11:43:19;;;;;;;4.28;2.15;;;10.70;99.90;;;;;;5013663;28;20037;-64
2022/03/30 11:45:46;;;;;;;3.92;1.80;;;10.80;99.90;;;;;;5013729;28;20046;-64
2022/03/30 11:48:13;;;;;;;3.35;1.70;;;11.00;99.90;;;;;;5013590;28;20081;-64
2022/03/30 11:50:47;;;;;;;2.13;1.45;;;11.30;98.70;;;;;;5013983;28;20084;-64
2022/03/30 11:53:14;;;;;;;4.53;1.92;;;11.20;99.40;;;;;;4996235;28;20419;-64
2022/03/30 11:55:53;;;;;;;3.60;1.90;;;11.30;99.00;;;;;;4983094;28;20089;-64
2022/03/30 11:58:28;;;;;;;4.57;1.63;;;11.40;98.60;;;;;;4994452;28;20066;-64
2022/03/30 12:00:56;;;;;;;4.78;1.77;;;11.20;99.30;;;;;;4994039;28;20441;-64
2022/03/30 12:03:23;;;;;;;4.60;1.58;;;11.00;99.60;;;;;;5006203;28;20078;-64
2022/03/30 12:05:56;;;;;;;3.80;1.60;;;11.00;99.50;;;;;;5017503;28;20034;-63
2022/03/30 12:08:22;;;;;;;3.28;1.80;;;11.00;99.70;;;;;;5017424;28;20362;-62
2022/03/30 12:10:49;;;;;;;8.07;2.00;;;11.10;99.90;;;;;;5000467;28;20046;-65
2022/03/30 12:13:23;;;;;;;7.32;1.88;;;11.00;99.90;;;;;;5017303;28;20037;-64
2022/03/30 12:16:01;;;;;;;3.33;1.70;;;10.90;99.90;;;;;;5017418;28;20124;-64
2022/03/30 12:18:26;;;;;;;2.85;1.35;;;10.90;99.90;;;;;;5017573;28;20050;-64
2022/03/30 12:20:52;;;;;;;4.85;1.60;;;10.90;99.90;;;;;;5017637;28;20663;-64
2022/03/30 12:23:18;;;;;;;5.07;1.80;;;10.50;99.90;;;;;;5017051;28;20093;-65
2022/03/30 12:25:44;;;;;;;6.97;1.60;;;10.50;99.90;;;;;;4999972;28;20073;-64
2022/03/30 12:28:09;;;;;;;4.07;1.83;;;10.40;99.90;;;;;;5017414;28;20042;-64
2022/03/30 12:30:38;;;;;;;4.70;1.63;;;10.50;99.90;;;;;;5017236;28;20034;-65
2022/03/30 12:33:04;;;;;;;2.97;1.45;;;10.50;99.90;;;;;;5016907;28;20037;-64
2022/03/30 12:35:33;;;;;;;3.78;1.52;;;10.80;99.90;;;;;;5016956;28;20418;-64
2022/03/30 12:38:11;;;;;;;2.88;1.50;;;10.80;99.60;;;;;;5017002;28;20451;-65
2022/03/30 12:40:39;;;;;;;3.22;1.27;;;10.60;99.80;;;;;;5017140;28;20107;-64
2022/03/30 12:43:06;;;;;;;3.83;1.38;;;10.70;99.80;;;;;;5016796;28;20379;-65
2022/03/30 12:45:43;;;;;;;4.13;1.67;;;10.80;99.40;;;;;;5017042;28;20057;-64
2022/03/30 12:48:10;;;;;;;3.58;1.38;;;10.80;99.30;;;;;;4999309;28;20033;-64
2022/03/30 12:50:36;;;;;;;4.88;2.72;;;10.70;99.40;;;;;;5005556;28;20472;-66
2022/03/30 12:53:17;;;;;;;3.22;1.42;;;10.70;99.40;;;;;;4996772;28;20034;-66
2022/03/30 12:55:46;;;;;;;3.75;1.25;;;10.80;99.00;;;;;;4994543;28;20065;-65
2022/03/30 12:58:20;;;;;;;3.45;1.40;;;10.70;99.30;;;;;;4996647;28;20171;-64
2022/03/30 13:00:48;;;;;;;3.95;1.13;;;10.70;99.00;;;;;;5016634;28;20053;-64